Time;durP1;ratioP1;P1;durP2;ratioP2;P2;SDS_P1;SDS_P2;PMS_P1;PMS_P2;Temp;Humidity;BMP_temperature;BMP_pressure;BME280_temperature;BME280_humidity;BME280_pressure;Samples;Min_cycle;Max_cycle;Signal;HPM_P1;HPM_P2
2023/10/23 00:01:42;;;;;;;14.90;4.65;;;;;;;15.47;61.58;94916.84;5067035;28;20490;-72
2023/10/23 00:04:07;;;;;;;17.92;4.45;;;;;;;15.52;61.29;94919.00;5049963;28;20511;-72
2023/10/23 00:06:33;;;;;;;17.13;4.78;;;;;;;15.48;61.41;94922.91;5066105;28;20036;-72
2023/10/23 00:08:59;;;;;;;17.55;4.97;;;;;;;15.40;61.59;94921.03;5032996;28;20248;-72
2023/10/23 00:11:25;;;;;;;17.15;5.15;;;;;;;15.33;61.66;94912.19;5032546;28;20060;-72
2023/10/23 00:13:50;;;;;;;14.60;4.70;;;;;;;15.41;61.68;94912.22;5066768;28;20029;-72
2023/10/23 00:16:16;;;;;;;14.95;4.47;;;;;;;15.53;61.25;94905.75;5048682;28;20109;-72
2023/10/23 00:18:41;;;;;;;15.23;5.30;;;;;;;15.63;61.27;94903.84;5049127;28;20048;-72
2023/10/23 00:21:07;;;;;;;14.95;5.18;;;;;;;15.60;61.32;94898.94;5049770;28;20028;-72
2023/10/23 00:23:33;;;;;;;17.73;4.60;;;;;;;15.58;61.09;94903.50;5066060;28;20070;-72
2023/10/23 00:25:58;;;;;;;18.30;5.07;;;;;;;15.46;61.48;94904.75;5064569;28;20036;-72
2023/10/23 00:28:24;;;;;;;14.30;4.22;;;;;;;15.51;61.42;94899.84;5065205;28;20086;-72
2023/10/23 00:30:49;;;;;;;17.67;4.93;;;;;;;15.61;60.83;94897.94;5065561;28;20028;-72
2023/10/23 00:33:15;;;;;;;15.05;4.70;;;;;;;15.62;61.20;94902.19;5067100;28;20029;-72
2023/10/23 00:35:40;;;;;;;20.52;4.80;;;;;;;15.59;61.49;94902.50;5063862;28;20085;-72
2023/10/23 00:38:05;;;;;;;17.83;4.35;;;;;;;15.60;61.15;94912.03;5065538;28;20033;-72
2023/10/23 00:40:31;;;;;;;13.07;4.80;;;;;;;15.49;61.59;94917.53;5048875;28;20076;-72
2023/10/23 00:42:56;;;;;;;16.85;5.20;;;;;;;15.32;61.39;94884.34;5049712;28;20036;-72
2023/10/23 00:45:22;;;;;;;13.80;4.70;;;;;;;15.42;61.89;94887.69;5048110;28;20020;-72
2023/10/23 00:47:47;;;;;;;16.75;4.45;;;;;;;15.45;61.79;94892.63;5046897;28;20044;-72
2023/10/23 00:50:13;;;;;;;15.18;4.50;;;;;;;15.50;61.74;94908.69;5034591;28;20024;-72
2023/10/23 00:52:38;;;;;;;17.70;3.95;;;;;;;15.41;62.04;94905.19;5045997;28;20045;-72
2023/10/23 00:55:04;;;;;;;19.45;5.03;;;;;;;15.53;61.26;94921.47;5065780;28;20028;-72
2023/10/23 00:57:30;;;;;;;19.15;5.22;;;;;;;15.42;61.61;94912.06;5030392;28;20039;-72
2023/10/23 00:59:55;;;;;;;15.70;4.78;;;;;;;15.39;61.69;94903.72;5079363;28;20044;-73
2023/10/23 01:02:20;;;;;;;18.92;4.80;;;;;;;15.38;61.61;94909.94;5065799;28;20036;-72
2023/10/23 01:04:46;;;;;;;21.15;4.88;;;;;;;15.19;62.19;94898.66;5065581;28;20423;-72
2023/10/23 01:07:11;;;;;;;22.92;4.43;;;;;;;15.19;61.98;94903.09;5030275;28;20028;-72
2023/10/23 01:09:37;;;;;;;12.52;4.53;;;;;;;15.10;62.53;94904.84;5064584;28;20045;-72
2023/10/23 01:12:03;;;;;;;18.00;4.80;;;;;;;15.10;62.83;94904.84;5032343;28;20025;-72
2023/10/23 01:14:28;;;;;;;17.40;4.63;;;;;;;15.16;62.76;94903.41;5065777;28;20123;-72
2023/10/23 01:16:53;;;;;;;15.77;4.03;;;;;;;15.20;62.71;94908.16;5065752;28;20036;-72
2023/10/23 01:19:19;;;;;;;17.48;4.57;;;;;;;15.12;62.60;94908.09;5065200;28;20193;-72
2023/10/23 01:21:44;;;;;;;19.23;4.55;;;;;;;15.23;62.31;94895.75;5029237;28;20029;-72
2023/10/23 01:24:10;;;;;;;19.30;4.50;;;;;;;15.22;62.62;94897.53;5048730;28;20029;-72
2023/10/23 01:26:35;;;;;;;17.15;4.60;;;;;;;15.22;62.75;94897.53;5031265;28;20086;-72
2023/10/23 01:29:00;;;;;;;17.65;5.20;;;;;;;15.23;62.47;94906.22;5064793;28;20494;-72
2023/10/23 01:31:26;;;;;;;23.58;4.90;;;;;;;15.18;62.96;94912.75;5065323;28;20036;-72
2023/10/23 01:33:51;;;;;;;14.52;5.10;;;;;;;15.08;63.58;94891.06;5059417;28;20032;-72
2023/10/23 01:36:17;;;;;;;14.00;4.70;;;;;;;15.17;62.93;94866.59;5047021;28;20492;-72
2023/10/23 01:38:43;;;;;;;16.52;4.43;;;;;;;15.35;62.20;94904.97;5047953;28;20032;-72
2023/10/23 01:41:08;;;;;;;16.33;5.00;;;;;;;15.28;62.44;94893.50;5048164;28;20037;-72
2023/10/23 01:43:34;;;;;;;19.48;4.43;;;;;;;15.35;62.60;94897.13;5066920;28;20513;-72
2023/10/23 01:45:59;;;;;;;17.50;4.38;;;;;;;15.44;63.27;94903.25;5063449;28;20082;-72
2023/10/23 01:48:24;;;;;;;13.18;4.97;;;;;;;15.55;64.21;94903.81;5065849;28;20399;-72
2023/10/23 01:50:50;;;;;;;14.18;4.13;;;;;;;15.48;62.39;94899.34;5065283;28;20020;-72
2023/10/23 01:53:15;;;;;;;20.50;5.43;;;;;;;15.31;61.98;94874.88;5045891;28;20482;-72
2023/10/23 01:55:41;;;;;;;13.50;4.60;;;;;;;15.37;61.73;94911.69;5063085;28;20414;-72
2023/10/23 01:58:06;;;;;;;19.55;4.22;;;;;;;15.47;61.05;94903.75;5064198;28;20037;-72
2023/10/23 02:00:32;;;;;;;18.58;5.13;;;;;;;15.19;61.65;94875.13;5066430;28;20033;-72
2023/10/23 02:02:57;;;;;;;13.82;4.55;;;;;;;15.20;61.77;94875.94;5047877;28;20039;-72
2023/10/23 02:05:23;;;;;;;14.43;4.80;;;;;;;15.41;61.74;94901.75;5046296;28;20044;-72
2023/10/23 02:07:48;;;;;;;14.13;4.05;;;;;;;15.21;61.85;94906.38;5067148;28;20129;-72
2023/10/23 02:10:14;;;;;;;17.55;5.18;;;;;;;15.14;62.23;94916.63;5064169;28;20079;-72
2023/10/23 02:12:39;;;;;;;15.23;4.90;;;;;;;15.08;62.28;94909.38;5064885;28;20064;-72
2023/10/23 02:15:05;;;;;;;15.43;4.70;;;;;;;15.08;62.41;94917.22;5065526;28;20040;-72
2023/10/23 02:17:31;;;;;;;18.35;4.47;;;;;;;15.21;62.11;94919.47;5046299;28;20032;-72
2023/10/23 02:19:56;;;;;;;13.75;4.40;;;;;;;15.18;62.13;94923.22;5066136;28;20037;-72
2023/10/23 02:22:21;;;;;;;16.98;4.80;;;;;;;14.89;62.91;94922.63;5063456;28;20410;-72
2023/10/23 02:24:47;;;;;;;16.95;4.70;;;;;;;14.85;63.10;94927.34;5067453;28;20043;-72
2023/10/23 02:27:12;;;;;;;17.35;4.90;;;;;;;14.87;62.94;94911.50;5065973;28;20036;-72
2023/10/23 02:29:40;;;;;;;16.08;4.90;;;;;;;14.86;63.15;94915.09;5051311;28;20064;-72
2023/10/23 02:32:07;;;;;;;12.55;4.15;;;;;;;14.92;63.05;94917.09;5048792;28;20025;-72
2023/10/23 02:34:34;;;;;;;18.83;5.18;;;;;;;14.88;63.34;94926.25;5068418;28;20076;-72
2023/10/23 02:36:59;;;;;;;17.63;4.97;;;;;;;14.84;63.35;94915.22;5067784;28;20123;-72
2023/10/23 02:39:24;;;;;;;18.27;5.03;;;;;;;14.74;63.72;94915.31;5069845;28;20037;-72
2023/10/23 02:41:50;;;;;;;18.42;5.38;;;;;;;14.81;63.57;94922.56;5069568;28;20616;-72
2023/10/23 02:44:16;;;;;;;17.10;4.65;;;;;;;14.73;63.78;94921.50;5066743;28;20028;-73
2023/10/23 02:46:41;;;;;;;18.65;5.03;;;;;;;14.63;64.20;94918.16;5068450;28;20039;-73
2023/10/23 02:49:07;;;;;;;21.23;4.55;;;;;;;14.62;63.79;94910.47;5068796;28;20036;-72
2023/10/23 02:51:32;;;;;;;18.00;5.65;;;;;;;14.64;63.89;94914.56;5051062;28;20071;-73
2023/10/23 02:53:58;;;;;;;15.85;4.20;;;;;;;14.66;64.21;94907.41;5050739;28;20651;-73
2023/10/23 02:56:23;;;;;;;16.35;4.68;;;;;;;14.53;64.14;94886.84;5066231;28;20028;-73
2023/10/23 02:58:49;;;;;;;19.10;5.03;;;;;;;14.71;64.17;94917.44;5067887;28;20474;-73
2023/10/23 03:01:20;;;;;;;16.08;4.90;;;;;;;14.63;64.14;94919.97;5070405;28;20031;-73
2023/10/23 03:03:45;;;;;;;17.52;5.38;;;;;;;14.39;64.70;94904.81;5053350;28;20040;-73
2023/10/23 03:06:11;;;;;;;15.05;4.88;;;;;;;14.50;64.69;94920.28;5069308;28;20513;-73
2023/10/23 03:08:37;;;;;;;15.15;4.63;;;;;;;14.47;64.52;94916.19;5051926;28;20029;-72
2023/10/23 03:11:02;;;;;;;19.38;4.65;;;;;;;14.25;64.34;94878.22;5071093;28;20021;-72
2023/10/23 03:13:27;;;;;;;16.55;4.50;;;;;;;14.50;64.45;94907.22;5069679;28;20025;-73
2023/10/23 03:15:53;;;;;;;13.20;4.82;;;;;;;14.55;64.67;94923.31;5069965;28;20059;-73
2023/10/23 03:18:18;;;;;;;16.98;4.80;;;;;;;14.52;64.44;94911.38;5072190;28;20442;-73
2023/10/23 03:20:44;;;;;;;22.48;4.95;;;;;;;14.54;64.27;94929.50;5052087;28;20044;-73
2023/10/23 03:23:09;;;;;;;18.17;5.30;;;;;;;14.44;64.54;94907.81;5070940;28;20418;-73
2023/10/23 03:25:35;;;;;;;18.17;4.60;;;;;;;14.63;64.23;94918.16;5069993;28;20032;-73
2023/10/23 03:28:00;;;;;;;17.17;4.60;;;;;;;14.48;64.36;94902.13;5071171;28;20028;-73
2023/10/23 03:30:25;;;;;;;16.58;5.10;;;;;;;14.57;64.28;94916.16;5071082;28;20495;-73
2023/10/23 03:32:51;;;;;;;16.92;5.40;;;;;;;14.56;64.09;94911.88;5070334;28;20479;-73
2023/10/23 03:35:16;;;;;;;18.65;5.35;;;;;;;14.53;64.12;94920.84;5070370;28;20028;-73
2023/10/23 03:37:42;;;;;;;22.67;4.53;;;;;;;14.52;64.33;94923.63;5071558;28;20016;-72
2023/10/23 03:40:10;;;;;;;14.55;5.05;;;;;;;14.50;64.17;94915.06;5070966;28;20028;-73
2023/10/23 03:42:36;;;;;;;16.80;4.97;;;;;;;14.44;64.67;94919.09;5038060;28;20032;-72
2023/10/23 03:45:01;;;;;;;17.33;4.65;;;;;;;14.36;64.69;94905.13;5070893;28;20024;-73
2023/10/23 03:47:26;;;;;;;17.40;4.40;;;;;;;14.47;64.62;94921.41;5054275;28;20403;-72
2023/10/23 03:49:52;;;;;;;28.23;5.50;;;;;;;14.41;65.01;94924.63;5071110;28;20493;-73
2023/10/23 03:52:17;;;;;;;15.45;4.85;;;;;;;14.46;64.80;94922.38;5072090;28;20029;-73
2023/10/23 03:54:43;;;;;;;15.35;5.05;;;;;;;14.39;64.64;94925.72;5071926;28;20033;-73
2023/10/23 03:57:08;;;;;;;12.60;5.45;;;;;;;14.28;65.15;94921.53;5071194;28;20085;-73
2023/10/23 03:59:33;;;;;;;13.70;4.38;;;;;;;14.20;64.96;94905.75;5070568;28;20028;-73
2023/10/23 04:01:59;;;;;;;16.48;5.57;;;;;;;14.32;65.00;94909.84;5070100;28;20040;-73
2023/10/23 04:04:24;;;;;;;12.95;4.88;;;;;;;14.30;65.22;94919.59;5070754;28;20036;-72
2023/10/23 04:06:50;;;;;;;10.57;4.20;;;;;;;14.33;65.42;94921.09;5071191;28;20041;-72
2023/10/23 04:09:15;;;;;;;14.70;4.82;;;;;;;14.30;65.27;94924.81;5037892;28;20037;-72
2023/10/23 04:11:40;;;;;;;15.55;4.53;;;;;;;14.29;65.24;94910.94;5053425;28;20024;-72
2023/10/23 04:14:08;;;;;;;16.67;4.70;;;;;;;14.51;65.21;94914.94;5053678;28;20040;-73
2023/10/23 04:16:33;;;;;;;14.35;4.28;;;;;;;14.46;65.40;94911.94;5069882;28;20028;-73
2023/10/23 04:18:59;;;;;;;16.40;5.05;;;;;;;14.35;65.40;94909.53;5071296;28;20048;-73
2023/10/23 04:21:24;;;;;;;13.10;4.15;;;;;;;14.40;65.36;94920.38;5069905;28;20536;-72
2023/10/23 04:23:49;;;;;;;15.18;5.00;;;;;;;14.37;65.13;94925.03;5069431;28;20040;-73
2023/10/23 04:26:15;;;;;;;15.18;4.72;;;;;;;14.37;64.98;94927.66;5068995;28;20024;-73
2023/10/23 04:28:40;;;;;;;16.13;4.65;;;;;;;14.22;65.23;94930.78;5069719;28;20036;-73
2023/10/23 04:31:06;;;;;;;15.05;4.72;;;;;;;14.41;65.00;94927.22;5032775;28;20032;-72
2023/10/23 04:33:31;;;;;;;16.63;4.97;;;;;;;14.25;65.29;94916.59;5062675;28;20471;-73
2023/10/23 04:35:57;;;;;;;16.02;4.72;;;;;;;14.40;65.28;94932.59;5052961;28;20039;-72
2023/10/23 04:38:24;;;;;;;13.70;4.65;;;;;;;14.42;65.16;94935.88;5068695;28;20040;-73
2023/10/23 04:40:50;;;;;;;16.85;4.93;;;;;;;14.49;64.97;94927.31;5053214;28;20097;-72
2023/10/23 04:43:16;;;;;;;16.17;4.50;;;;;;;14.63;64.78;94939.09;5069188;28;20128;-73
2023/10/23 04:45:41;;;;;;;13.15;5.00;;;;;;;14.54;64.65;94939.94;5068654;28;20522;-73
2023/10/23 04:48:07;;;;;;;15.38;4.75;;;;;;;14.40;64.47;94919.53;5069569;28;20482;-73
2023/10/23 04:50:33;;;;;;;17.27;5.07;;;;;;;14.51;64.29;94933.22;5035383;28;20131;-73
2023/10/23 04:52:59;;;;;;;14.63;4.50;;;;;;;14.50;64.00;94935.97;5048934;28;20483;-73
2023/10/23 04:55:25;;;;;;;16.42;5.03;;;;;;;14.36;64.40;94929.47;5061728;28;20031;-72
2023/10/23 04:57:50;;;;;;;13.93;4.32;;;;;;;14.43;64.68;94937.50;5047183;28;20020;-73
2023/10/23 05:00:17;;;;;;;16.08;4.82;;;;;;;14.42;64.92;94941.94;5066762;28;20028;-73
2023/10/23 05:02:42;;;;;;;13.57;4.20;;;;;;;14.43;64.72;94946.22;5065606;28;20036;-73
2023/10/23 05:05:07;;;;;;;19.08;4.38;;;;;;;14.31;64.18;94908.16;5064642;28;20032;-73
2023/10/23 05:07:33;;;;;;;14.45;4.22;;;;;;;14.55;64.43;94946.03;5064227;28;20123;-72
2023/10/23 05:09:58;;;;;;;17.15;5.05;;;;;;;14.59;64.49;94945.56;5073657;28;20032;-73
2023/10/23 05:12:24;;;;;;;20.80;5.68;;;;;;;14.59;64.54;94947.34;5029613;28;20021;-73
2023/10/23 05:14:49;;;;;;;14.52;4.22;;;;;;;14.56;64.32;94947.66;5065578;28;20036;-73
2023/10/23 05:17:15;;;;;;;14.90;4.75;;;;;;;14.55;64.06;94962.53;5047764;28;20426;-73
2023/10/23 05:19:41;;;;;;;13.93;4.93;;;;;;;14.53;64.01;94954.00;5065004;28;20121;-73
2023/10/23 05:22:06;;;;;;;13.30;4.95;;;;;;;14.56;64.41;94964.16;5063647;28;20494;-73
2023/10/23 05:24:32;;;;;;;11.55;4.13;;;;;;;14.51;64.16;94967.19;5066981;28;20041;-73
2023/10/23 05:26:57;;;;;;;11.45;4.65;;;;;;;14.42;64.12;94972.47;5064968;28;20021;-72
2023/10/23 05:29:22;;;;;;;15.18;4.18;;;;;;;14.51;64.16;94976.81;5067550;28;20033;-73
2023/10/23 05:31:48;;;;;;;11.68;4.63;;;;;;;14.45;63.96;94987.84;5063112;28;20036;-72
2023/10/23 05:34:13;;;;;;;15.35;5.03;;;;;;;14.35;64.39;94976.63;5067091;28;20037;-73
2023/10/23 05:36:39;;;;;;;16.80;5.43;;;;;;;14.28;64.83;94977.22;5062369;28;20047;-73
2023/10/23 05:39:05;;;;;;;15.10;4.95;;;;;;;14.30;65.17;94975.28;5065389;28;20040;-73
2023/10/23 05:41:31;;;;;;;17.77;4.65;;;;;;;14.30;64.77;94938.72;5054502;28;20029;-72
2023/10/23 05:43:56;;;;;;;12.13;4.28;;;;;;;14.56;64.67;94965.97;5064041;28;20571;-72
2023/10/23 05:46:22;;;;;;;13.55;4.70;;;;;;;14.69;64.46;94954.16;5063068;28;20032;-72
2023/10/23 05:48:48;;;;;;;21.17;4.50;;;;;;;14.71;64.66;94967.09;5064105;28;20043;-72
2023/10/23 05:51:14;;;;;;;14.32;4.70;;;;;;;14.80;64.94;94966.19;5066557;28;20086;-73
2023/10/23 05:53:39;;;;;;;18.50;5.80;;;;;;;14.72;64.37;94968.75;5063715;28;20032;-73
2023/10/23 05:56:05;;;;;;;20.65;5.80;;;;;;;14.89;64.86;94967.91;5059465;28;20415;-73
2023/10/23 05:58:31;;;;;;;20.50;6.03;;;;;;;14.82;65.15;94958.19;5068400;28;20036;-73
2023/10/23 06:00:56;;;;;;;24.45;5.80;;;;;;;14.80;65.79;94979.28;5051445;28;20119;-72
2023/10/23 06:03:22;;;;;;;15.25;5.72;;;;;;;14.97;65.54;94982.88;5067467;28;20039;-72
2023/10/23 06:05:47;;;;;;;24.30;6.03;;;;;;;14.93;65.43;94992.81;5051853;28;20040;-73
2023/10/23 06:08:13;;;;;;;17.55;6.65;;;;;;;14.95;65.63;94995.25;5070229;28;20048;-73
2023/10/23 06:10:44;;;;;;;22.45;6.15;;;;;;;14.95;64.94;95000.50;5070448;28;20027;-73
2023/10/23 06:13:11;;;;;;;18.00;6.05;;;;;;;14.85;64.93;94989.28;5034390;28;20510;-72
2023/10/23 06:15:37;;;;;;;17.58;5.85;;;;;;;14.69;65.29;94980.31;5068677;28;20448;-73
2023/10/23 06:18:02;;;;;;;20.98;6.00;;;;;;;14.82;65.10;94989.56;5068078;28;20048;-73
2023/10/23 06:20:28;;;;;;;17.08;6.22;;;;;;;14.90;64.90;94990.47;5050119;28;20032;-72
2023/10/23 06:22:53;;;;;;;19.58;7.00;;;;;;;14.97;64.88;94993.34;5049960;28;20442;-73
2023/10/23 06:25:18;;;;;;;21.23;6.05;;;;;;;15.12;64.35;94985.78;5069127;28;20024;-73
2023/10/23 06:27:44;;;;;;;15.45;6.28;;;;;;;15.19;63.86;94982.41;5068564;28;20032;-73
2023/10/23 06:30:10;;;;;;;20.40;6.85;;;;;;;15.11;64.59;94990.19;5070279;28;20033;-72
2023/10/23 06:32:35;;;;;;;22.13;6.38;;;;;;;14.82;64.62;94958.19;5060120;28;20032;-73
2023/10/23 06:35:01;;;;;;;22.40;6.82;;;;;;;15.44;63.37;95000.09;5065604;28;20031;-73
2023/10/23 06:37:26;;;;;;;21.40;6.60;;;;;;;15.35;63.47;95005.28;5065588;28;20506;-72
2023/10/23 06:39:52;;;;;;;15.43;6.00;;;;;;;15.19;64.14;95013.81;5053306;28;20078;-72
2023/10/23 06:42:17;;;;;;;37.90;7.43;;;;;;;15.13;64.17;95024.88;5071810;28;20028;-73
2023/10/23 06:44:43;;;;;;;17.23;5.95;;;;;;;15.17;64.17;95007.06;5071433;28;20037;-73
2023/10/23 06:47:10;;;;;;;18.27;5.82;;;;;;;15.34;63.98;95016.69;5069943;28;20411;-72
2023/10/23 06:49:37;;;;;;;17.58;6.35;;;;;;;15.36;63.94;95019.19;5072012;28;20029;-73
2023/10/23 06:52:04;;;;;;;15.85;6.60;;;;;;;15.18;64.53;95022.63;5070309;28;20037;-73
2023/10/23 06:54:29;;;;;;;26.00;6.75;;;;;;;15.11;64.93;95026.81;5071969;28;20029;-73
2023/10/23 06:56:55;;;;;;;20.17;6.90;;;;;;;15.11;65.13;95016.34;5063871;28;20544;-73
2023/10/23 06:59:20;;;;;;;17.40;7.30;;;;;;;15.39;64.14;95034.59;5053829;28;20028;-72
2023/10/23 07:01:45;;;;;;;21.33;6.50;;;;;;;15.29;64.93;95039.88;5071194;28;20445;-73
2023/10/23 07:04:11;;;;;;;16.60;6.03;;;;;;;15.08;65.06;95011.41;5053996;28;20454;-74
2023/10/23 07:06:36;;;;;;;17.15;6.28;;;;;;;15.47;64.88;95052.97;5038336;28;20021;-74
2023/10/23 07:09:02;;;;;;;15.50;6.22;;;;;;;15.67;64.28;95044.94;5067050;28;20384;-77
2023/10/23 07:11:27;;;;;;;18.38;6.65;;;;;;;15.58;63.44;94999.56;5052623;28;20028;-75
2023/10/23 07:13:53;;;;;;;21.17;6.47;;;;;;;15.80;63.06;95021.84;5066444;28;20032;-75
2023/10/23 07:16:19;;;;;;;20.40;6.70;;;;;;;15.82;63.40;95046.91;5068744;28;20036;-73
2023/10/23 07:18:45;;;;;;;13.50;5.65;;;;;;;16.12;62.91;95041.31;5069875;28;20052;-72
2023/10/23 07:21:10;;;;;;;21.50;6.03;;;;;;;16.13;62.51;95037.72;5067150;28;20020;-73
2023/10/23 07:23:36;;;;;;;18.88;5.85;;;;;;;16.07;62.39;95026.06;5069475;28;20031;-73
2023/10/23 07:26:10;;;;;;;15.65;5.88;;;;;;;16.13;62.14;95045.59;5053930;28;20391;-73
2023/10/23 07:28:38;;;;;;;23.25;5.70;;;;;;;16.17;62.19;95029.41;5047896;28;20028;-72
2023/10/23 07:31:04;;;;;;;17.77;6.45;;;;;;;16.30;61.77;95029.00;5070559;28;20039;-72
2023/10/23 07:33:30;;;;;;;16.17;5.45;;;;;;;16.27;62.46;95024.88;5054185;28;20035;-72
2023/10/23 07:36:05;;;;;;;15.70;5.25;;;;;;;16.61;60.89;95031.88;5053829;28;20032;-72
2023/10/23 07:38:30;;;;;;;11.73;5.43;;;;;;;16.60;61.12;95018.94;5068130;28;20037;-71
2023/10/23 07:40:57;;;;;;;17.85;5.60;;;;;;;16.84;59.59;95019.03;5051986;28;20113;-71
2023/10/23 07:43:22;;;;;;;15.18;5.07;;;;;;;16.88;59.81;95007.25;5063755;28;20282;-72
2023/10/23 07:45:48;;;;;;;20.67;6.22;;;;;;;16.96;59.93;95007.25;5070727;28;20505;-71
2023/10/23 07:48:13;;;;;;;20.13;5.63;;;;;;;16.89;60.74;95014.13;5053232;28;20017;-72
2023/10/23 07:50:39;;;;;;;13.32;5.57;;;;;;;16.78;61.64;94996.06;5071331;28;20036;-72
2023/10/23 07:53:04;;;;;;;16.40;6.38;;;;;;;16.85;61.94;94994.44;5053251;28;20044;-71
2023/10/23 07:55:29;;;;;;;16.45;5.07;;;;;;;16.98;60.79;95009.72;5033908;28;20029;-72
2023/10/23 07:57:55;;;;;;;19.52;5.13;;;;;;;17.18;60.29;95015.47;5033768;28;20043;-71
2023/10/23 08:00:20;;;;;;;16.45;5.18;;;;;;;17.51;59.08;95015.50;5071566;28;20494;-71
2023/10/23 08:02:46;;;;;;;17.70;5.72;;;;;;;17.62;58.97;95026.47;5070149;28;20024;-71
2023/10/23 08:05:11;;;;;;;16.45;5.50;;;;;;;17.52;59.11;95025.00;5036852;28;20055;-71
2023/10/23 08:07:37;;;;;;;16.48;5.68;;;;;;;17.68;58.61;95017.13;5049752;28;20468;-71
2023/10/23 08:10:03;;;;;;;19.50;5.50;;;;;;;17.77;58.34;95012.69;5071184;28;20028;-72
2023/10/23 08:12:29;;;;;;;20.38;5.70;;;;;;;17.68;58.59;95009.25;5070134;28;20016;-71
2023/10/23 08:14:55;;;;;;;20.13;6.72;;;;;;;17.62;59.09;95015.16;5069990;28;20033;-71
2023/10/23 08:17:20;;;;;;;20.40;6.32;;;;;;;17.72;58.95;95028.97;5069701;28;20043;-72
2023/10/23 08:19:45;;;;;;;23.30;6.18;;;;;;;17.49;59.08;95015.66;5068612;28;20041;-72
2023/10/23 08:22:11;;;;;;;17.33;6.00;;;;;;;17.34;59.01;94984.00;5069272;28;20044;-72
2023/10/23 08:24:37;;;;;;;26.90;6.53;;;;;;;17.92;58.63;95020.75;5053274;28;20068;-72
2023/10/23 08:27:03;;;;;;;23.80;6.65;;;;;;;17.78;58.72;95017.81;5062393;28;20043;-72
2023/10/23 08:29:28;;;;;;;21.45;6.82;;;;;;;18.01;57.99;95019.75;5053082;28;20193;-73
2023/10/23 08:31:54;;;;;;;21.08;5.80;;;;;;;18.00;58.57;95016.31;5071125;28;20028;-74
2023/10/23 08:34:21;;;;;;;22.67;6.90;;;;;;;17.92;58.85;95026.00;5071071;28;20525;-74
2023/10/23 08:36:49;;;;;;;23.88;6.53;;;;;;;18.26;57.88;95015.25;5070874;28;20020;-73
2023/10/23 08:39:15;;;;;;;16.88;6.13;;;;;;;18.38;57.53;95018.31;5069323;28;20043;-74
2023/10/23 08:41:40;;;;;;;20.25;6.18;;;;;;;18.10;58.41;95010.84;5069659;28;20025;-74
2023/10/23 08:44:06;;;;;;;18.30;6.45;;;;;;;18.11;58.67;95020.38;5052999;28;20040;-73
2023/10/23 08:46:31;;;;;;;18.63;6.28;;;;;;;18.50;57.41;95009.91;5069573;28;20047;-74
2023/10/23 08:48:57;;;;;;;22.17;6.72;;;;;;;18.60;57.29;95014.13;5052419;28;20029;-74
2023/10/23 08:51:23;;;;;;;22.35;6.80;;;;;;;17.58;57.63;94856.28;5069154;28;20029;-75
2023/10/23 08:54:05;;;;;;;22.33;6.15;;;;;;;18.43;57.27;94984.44;5052864;28;20402;-74
2023/10/23 08:56:33;;;;;;;25.77;6.43;;;;;;;18.64;57.25;95011.00;5062936;28;20036;-73
2023/10/23 08:58:59;;;;;;;24.73;7.18;;;;;;;18.49;57.20;94989.00;5052661;28;20032;-73
2023/10/23 09:01:24;;;;;;;22.40;5.85;;;;;;;18.79;56.85;95013.72;5051504;28;20115;-73
2023/10/23 09:03:50;;;;;;;24.33;6.03;;;;;;;18.84;56.25;94992.97;5068464;28;20120;-73
2023/10/23 09:06:18;;;;;;;15.77;6.60;;;;;;;18.80;56.94;95009.28;5050800;28;20016;-73
2023/10/23 09:08:44;;;;;;;20.17;5.72;;;;;;;18.80;56.62;95009.28;5067892;28;20252;-73
2023/10/23 09:11:10;;;;;;;19.50;5.60;;;;;;;18.90;56.25;95002.00;5034227;28;20418;-73
2023/10/23 09:13:37;;;;;;;19.92;5.97;;;;;;;18.95;56.68;95003.13;5067480;28;20491;-73
2023/10/23 09:16:07;;;;;;;21.10;6.38;;;;;;;18.82;56.46;94994.97;5067356;28;20510;-73
2023/10/23 09:18:33;;;;;;;22.20;6.90;;;;;;;19.03;56.07;94989.09;5051040;28;20411;-73
2023/10/23 09:20:58;;;;;;;19.05;6.50;;;;;;;19.25;55.88;94999.78;5052729;28;20036;-73
2023/10/23 09:23:24;;;;;;;16.00;6.05;;;;;;;19.42;55.79;94996.06;5070777;28;20085;-73
2023/10/23 09:25:50;;;;;;;18.95;5.85;;;;;;;19.55;55.43;94996.25;5070711;28;20492;-74
2023/10/23 09:28:15;;;;;;;20.15;6.40;;;;;;;19.70;54.63;94987.63;5069310;28;20036;-74
2023/10/23 09:30:42;;;;;;;26.20;6.72;;;;;;;19.60;54.83;94996.53;5052665;28;20032;-74
2023/10/23 09:33:07;;;;;;;18.17;5.78;;;;;;;19.60;55.10;94988.63;5072007;28;20052;-74
2023/10/23 09:35:33;;;;;;;20.17;6.22;;;;;;;19.69;54.48;94989.41;5056797;28;20414;-74
2023/10/23 09:37:58;;;;;;;21.02;6.15;;;;;;;19.72;54.65;94988.22;5056686;28;20036;-74
2023/10/23 09:40:24;;;;;;;13.13;5.50;;;;;;;19.82;54.02;94988.81;5074726;28;20510;-74
2023/10/23 09:42:50;;;;;;;21.75;5.95;;;;;;;19.95;53.65;94980.28;5073388;28;20028;-74
2023/10/23 09:45:16;;;;;;;21.23;5.53;;;;;;;20.04;53.24;94982.63;5040189;28;20037;-74
2023/10/23 09:47:41;;;;;;;13.77;5.38;;;;;;;19.98;53.65;94982.56;5056496;28;20036;-74
2023/10/23 09:50:07;;;;;;;17.52;5.90;;;;;;;19.77;54.52;94983.25;5056502;28;20039;-74
2023/10/23 09:52:34;;;;;;;20.35;5.70;;;;;;;20.00;53.35;94965.56;5073212;28;20021;-74
2023/10/23 09:55:03;;;;;;;14.70;4.70;;;;;;;20.25;52.79;94978.44;5056689;28;20425;-74
2023/10/23 09:57:36;;;;;;;16.38;5.13;;;;;;;20.34;52.07;94966.81;5073148;28;20036;-74
2023/10/23 10:00:13;;;;;;;21.13;7.72;;;;;;;20.15;53.30;94965.56;5056568;28;20085;-74
2023/10/23 10:02:39;;;;;;;24.45;7.43;;;;;;;20.31;52.48;94951.38;5057734;28;20021;-74
2023/10/23 10:05:08;;;;;;;19.55;4.68;;;;;;;20.25;52.51;94959.97;5072931;28;20052;-74
2023/10/23 10:08:02;;;;;;;15.98;5.57;;;;;;;20.41;51.89;94956.34;5039476;28;20414;-74
2023/10/23 10:10:28;;;;;;;15.10;5.00;;;;;;;20.38;51.74;94946.97;5072888;28;20024;-74
2023/10/23 10:12:56;;;;;;;16.92;5.10;;;;;;;20.26;52.34;94932.63;5039428;28;20029;-74
2023/10/23 10:15:22;;;;;;;12.93;4.85;;;;;;;20.45;52.85;94945.25;5055940;28;20615;-74
2023/10/23 10:17:49;;;;;;;14.73;5.03;;;;;;;20.58;51.85;94941.16;5055857;28;20052;-74
2023/10/23 10:20:14;;;;;;;18.60;5.20;;;;;;;20.60;51.56;94944.44;5056102;28;20028;-74
2023/10/23 10:22:41;;;;;;;15.90;5.10;;;;;;;20.87;50.63;94932.34;5055824;28;20458;-74
2023/10/23 10:25:07;;;;;;;21.65;7.13;;;;;;;20.88;50.94;94937.41;5039315;28;20082;-74
2023/10/23 10:27:33;;;;;;;16.92;5.82;;;;;;;20.85;51.22;94926.44;5072494;28;20508;-73
2023/10/23 10:29:59;;;;;;;21.25;6.00;;;;;;;20.77;51.05;94914.16;5072513;28;20064;-74
2023/10/23 10:32:25;;;;;;;23.45;5.53;;;;;;;21.18;49.83;94929.38;5072378;28;20480;-74
2023/10/23 10:34:51;;;;;;;17.70;5.60;;;;;;;21.20;50.63;94927.34;5072595;28;20032;-74
2023/10/23 10:37:17;;;;;;;17.75;5.13;;;;;;;21.21;49.88;94926.38;5055664;28;20103;-74
2023/10/23 10:39:52;;;;;;;17.27;4.93;;;;;;;21.44;49.21;94930.66;5055887;28;20033;-74
2023/10/23 10:42:17;;;;;;;22.67;5.93;;;;;;;21.19;50.31;94917.81;5072150;28;20029;-74
2023/10/23 10:44:52;;;;;;;20.10;5.55;;;;;;;21.36;49.71;94924.44;5071462;28;20048;-74
2023/10/23 10:47:18;;;;;;;21.38;6.30;;;;;;;21.40;49.77;94925.75;5072580;28;20055;-74
2023/10/23 10:49:47;;;;;;;21.08;6.57;;;;;;;21.28;50.07;94910.56;5072455;28;20029;-74
2023/10/23 10:52:30;;;;;;;17.13;5.82;;;;;;;21.52;49.48;94907.53;5072044;28;20138;-74
2023/10/23 10:54:56;;;;;;;22.13;6.53;;;;;;;21.95;47.78;94911.88;5055765;28;20033;-74
2023/10/23 10:57:21;;;;;;;14.63;5.78;;;;;;;21.55;48.86;94886.00;5073157;28;20098;-74
2023/10/23 10:59:47;;;;;;;15.38;5.30;;;;;;;21.71;49.02;94905.22;5055391;28;20410;-74
2023/10/23 11:02:12;;;;;;;14.57;5.68;;;;;;;21.55;49.44;94901.84;5038452;28;20491;-74
2023/10/23 11:04:38;;;;;;;24.48;6.47;;;;;;;21.61;48.60;94889.69;5072020;28;20040;-74
2023/10/23 11:07:03;;;;;;;20.90;6.00;;;;;;;21.64;48.75;94898.06;5055346;28;20032;-74
2023/10/23 11:09:29;;;;;;;18.55;6.40;;;;;;;21.57;49.06;94885.81;5071940;28;20021;-74
2023/10/23 11:11:58;;;;;;;18.60;6.15;;;;;;;21.61;48.76;94892.34;5071692;28;20444;-74
2023/10/23 11:14:24;;;;;;;28.27;5.88;;;;;;;21.50;48.89;94887.59;5071856;28;20028;-74
2023/10/23 11:16:51;;;;;;;20.65;5.90;;;;;;;21.69;48.19;94896.66;5038267;28;20444;-75
2023/10/23 11:19:16;;;;;;;20.67;6.05;;;;;;;21.95;47.18;94896.81;5072838;28;20041;-74